createdAt,value
2022-07-25T00:01:44.466Z,20.67
2022-07-25T00:04:16.235Z,20.60
2022-07-25T00:06:44.880Z,20.65
2022-07-25T00:09:12.941Z,20.39
2022-07-25T00:11:43.106Z,20.47
2022-07-25T00:14:11.178Z,20.15
2022-07-25T00:16:39.450Z,20.01
2022-07-25T00:19:07.712Z,20.13
2022-07-25T00:21:37.126Z,20.36
2022-07-25T00:24:08.193Z,20.23
2022-07-25T00:26:40.427Z,20.16
2022-07-25T00:29:08.652Z,20.08
2022-07-25T00:31:38.856Z,20.20
2022-07-25T00:34:07.368Z,20.28
2022-07-25T00:36:37.008Z,20.31
2022-07-25T00:39:07.359Z,20.48
2022-07-25T00:41:35.370Z,20.61
2022-07-25T00:44:03.682Z,20.68
2022-07-25T00:46:31.955Z,20.57
2022-07-25T00:49:00.238Z,20.37
2022-07-25T00:51:28.433Z,20.17
2022-07-25T00:54:00.231Z,20.16
2022-07-25T00:56:28.303Z,20.02
2022-07-25T00:58:56.350Z,20.13
2022-07-25T01:01:24.455Z,20.00
2022-07-25T01:03:53.004Z,20.11
2022-07-25T01:06:21.679Z,20.18
2022-07-25T01:08:52.907Z,20.33
2022-07-25T01:11:22.334Z,20.32
2022-07-25T01:13:50.392Z,20.28
2022-07-25T01:16:20.979Z,20.55
2022-07-25T01:18:49.078Z,20.23
2022-07-25T01:21:18.523Z,20.07
2022-07-25T01:23:46.573Z,20.02
2022-07-25T01:26:14.625Z,19.88
2022-07-25T01:28:42.731Z,19.86
2022-07-25T01:31:10.915Z,19.64
2022-07-25T01:33:39.020Z,19.66
2022-07-25T01:36:07.215Z,19.52
2022-07-25T01:38:36.609Z,19.41
2022-07-25T01:41:04.687Z,19.35
2022-07-25T01:43:32.836Z,19.38
2022-07-25T01:46:00.922Z,20.00
2022-07-25T01:48:29.153Z,19.19
2022-07-25T01:50:57.212Z,19.21
2022-07-25T01:53:25.244Z,19.20
2022-07-25T01:55:55.650Z,19.30
2022-07-25T01:58:25.509Z,19.43
2022-07-25T02:00:53.586Z,20.08
2022-07-25T02:03:33.749Z,19.56
2022-07-25T02:06:02.906Z,19.34
2022-07-25T02:08:30.933Z,19.32
2022-07-25T02:11:02.742Z,19.54
2022-07-25T02:13:30.759Z,19.41
2022-07-25T02:15:58.783Z,19.23
2022-07-25T02:18:26.824Z,19.30
2022-07-25T02:20:54.955Z,19.40
2022-07-25T02:23:23.059Z,19.48
2022-07-25T02:25:51.113Z,19.67
2022-07-25T02:28:20.480Z,19.58
2022-07-25T02:30:48.547Z,19.59
2022-07-25T02:33:16.598Z,19.62
2022-07-25T02:35:44.724Z,19.75
2022-07-25T02:38:19.404Z,19.64
2022-07-25T02:40:47.496Z,19.60
2022-07-25T02:43:15.528Z,19.60
2022-07-25T02:45:45.361Z,19.68
2022-07-25T02:48:14.022Z,19.79
2022-07-25T02:50:42.107Z,19.62
2022-07-25T02:53:10.139Z,19.68
2022-07-25T02:55:38.162Z,19.67
2022-07-25T02:58:06.219Z,19.66
2022-07-25T03:00:34.633Z,19.36
2022-07-25T03:03:04.424Z,19.46
2022-07-25T03:05:33.207Z,19.49
2022-07-25T03:08:03.511Z,19.36
2022-07-25T03:10:31.572Z,19.56
2022-07-25T03:12:59.577Z,20.00
2022-07-25T03:15:27.603Z,19.75
2022-07-25T03:17:55.651Z,19.73
2022-07-25T03:20:25.212Z,19.32
2022-07-25T03:22:53.271Z,19.54
2022-07-25T03:25:21.923Z,19.18
2022-07-25T03:27:50.674Z,19.13
2022-07-25T03:30:18.736Z,19.02
2022-07-25T03:32:46.764Z,19.09
2022-07-25T03:35:15.414Z,18.90
2022-07-25T03:37:45.548Z,18.83
2022-07-25T03:40:14.354Z,18.78
2022-07-25T03:42:43.967Z,18.61
2022-07-25T03:45:12.159Z,18.69
2022-07-25T03:47:40.183Z,18.64
2022-07-25T03:50:08.399Z,18.70
2022-07-25T03:52:38.299Z,18.66
2022-07-25T03:55:09.031Z,18.66
2022-07-25T03:57:37.601Z,18.52
2022-07-25T04:00:07.180Z,18.47
2022-07-25T04:02:35.655Z,18.57
2022-07-25T04:05:04.311Z,18.68
2022-07-25T04:07:32.286Z,18.72
2022-07-25T04:10:00.359Z,18.84
2022-07-25T04:12:29.985Z,18.95
2022-07-25T04:14:58.190Z,18.89
2022-07-25T04:17:26.300Z,18.96
2022-07-25T04:19:56.821Z,19.13
2022-07-25T04:22:24.840Z,18.88
2022-07-25T04:24:52.882Z,18.88
2022-07-25T04:27:20.975Z,19.09
2022-07-25T04:29:50.672Z,19.14
2022-07-25T04:32:23.346Z,19.52
2022-07-25T04:34:52.223Z,19.39
2022-07-25T04:37:20.510Z,19.14
2022-07-25T04:39:48.573Z,19.22
2022-07-25T04:42:16.619Z,19.22
2022-07-25T04:44:44.677Z,19.09
2022-07-25T04:47:14.065Z,19.17
2022-07-25T04:49:42.077Z,19.29
2022-07-25T04:52:10.202Z,19.20
2022-07-25T04:54:38.336Z,19.12
2022-07-25T04:57:06.379Z,19.31
2022-07-25T04:59:36.736Z,19.32
2022-07-25T05:02:04.916Z,19.47
2022-07-25T05:04:36.596Z,19.71
2022-07-25T05:07:15.294Z,19.84
2022-07-25T05:09:43.373Z,19.88
2022-07-25T05:12:14.091Z,20.09
2022-07-25T05:14:42.126Z,20.29
2022-07-25T05:17:10.222Z,20.17
2022-07-25T05:19:40.060Z,20.18
2022-07-25T05:22:08.154Z,20.45
2022-07-25T05:24:38.654Z,20.56
2022-07-25T05:27:08.850Z,20.65
2022-07-25T05:29:36.911Z,20.74
2022-07-25T05:32:05.308Z,21.04
2022-07-25T05:34:35.828Z,21.02
2022-07-25T05:37:05.320Z,21.12
2022-07-25T05:39:33.441Z,21.29
2022-07-25T05:42:01.483Z,21.58
2022-07-25T05:44:29.724Z,22.55
2022-07-25T05:46:58.041Z,26.58
2022-07-25T05:49:26.383Z,26.97
2022-07-25T05:51:54.450Z,25.74
2022-07-25T05:54:24.390Z,27.81
2022-07-25T05:56:55.639Z,27.54
2022-07-25T05:59:23.720Z,28.75
2022-07-25T06:01:51.776Z,27.98
2022-07-25T06:04:27.028Z,31.26
2022-07-25T06:06:55.412Z,28.12
2022-07-25T06:09:24.989Z,27.52
2022-07-25T06:12:00.316Z,29.21
2022-07-25T06:14:30.010Z,28.75
2022-07-25T06:17:00.652Z,29.77
2022-07-25T06:19:31.256Z,28.44
2022-07-25T06:21:59.347Z,28.72
2022-07-25T06:24:28.970Z,29.04
2022-07-25T06:26:57.105Z,29.01
2022-07-25T06:29:25.430Z,29.29
2022-07-25T06:31:54.802Z,28.07
2022-07-25T06:34:25.769Z,29.03
2022-07-25T06:36:57.433Z,28.77
2022-07-25T06:39:28.083Z,28.35
2022-07-25T06:41:59.645Z,26.12
2022-07-25T06:44:35.143Z,25.56
2022-07-25T06:47:03.418Z,25.55
2022-07-25T06:49:31.539Z,26.06
2022-07-25T06:51:59.693Z,26.12
2022-07-25T06:54:27.812Z,26.17
2022-07-25T06:56:57.545Z,26.00
2022-07-25T06:59:26.130Z,26.17
2022-07-25T07:01:54.289Z,26.79
2022-07-25T07:04:24.764Z,27.54
2022-07-25T07:06:52.871Z,28.23
2022-07-25T07:09:21.003Z,28.37
2022-07-25T07:11:49.135Z,28.45
2022-07-25T07:14:21.119Z,28.46
2022-07-25T07:16:51.316Z,28.04
2022-07-25T07:19:19.431Z,27.88
2022-07-25T07:21:49.925Z,28.51
2022-07-25T07:24:23.679Z,28.96
2022-07-25T07:26:53.454Z,28.80
2022-07-25T07:29:23.026Z,28.49
2022-07-25T07:31:53.448Z,28.28
2022-07-25T07:34:24.947Z,28.66
2022-07-25T07:36:55.397Z,28.66
2022-07-25T07:39:23.514Z,28.76
2022-07-25T07:41:52.108Z,29.21
2022-07-25T07:44:20.491Z,29.43
2022-07-25T07:46:50.373Z,29.15
2022-07-25T07:49:18.578Z,29.39
2022-07-25T07:51:46.743Z,29.05
2022-07-25T07:54:32.202Z,28.89
2022-07-25T07:57:00.264Z,29.03
2022-07-25T07:59:28.360Z,29.17
2022-07-25T08:01:57.885Z,29.03
2022-07-25T08:04:26.003Z,29.19
2022-07-25T08:06:56.140Z,29.19
2022-07-25T08:09:25.720Z,29.09
2022-07-25T08:11:54.236Z,29.29
2022-07-25T08:14:22.370Z,29.56
2022-07-25T08:16:52.600Z,29.57
2022-07-25T08:19:22.581Z,29.13
2022-07-25T08:21:50.739Z,29.74
2022-07-25T08:24:18.789Z,29.76
2022-07-25T08:26:46.958Z,29.90
2022-07-25T08:29:20.584Z,30.10
2022-07-25T08:31:50.173Z,29.92
2022-07-25T08:34:19.495Z,29.77
2022-07-25T08:36:51.343Z,30.08
2022-07-25T08:39:19.471Z,29.49
2022-07-25T08:41:50.692Z,30.39
2022-07-25T08:44:19.710Z,30.74
2022-07-25T08:46:49.064Z,30.49
2022-07-25T08:49:17.363Z,30.44
2022-07-25T08:51:45.911Z,30.73
2022-07-25T08:54:15.407Z,30.59
2022-07-25T08:56:44.255Z,30.90
2022-07-25T08:59:14.602Z,30.60
2022-07-25T09:01:42.900Z,30.04
2022-07-25T09:04:11.364Z,30.77
2022-07-25T09:06:49.605Z,30.80
2022-07-25T09:09:19.562Z,30.93
2022-07-25T09:11:47.882Z,30.61
2022-07-25T09:14:15.989Z,30.91
2022-07-25T09:16:45.163Z,30.97
2022-07-25T09:19:14.535Z,31.31
2022-07-25T09:21:44.101Z,30.99
2022-07-25T09:24:16.857Z,31.13
2022-07-25T09:26:54.421Z,31.50
2022-07-25T09:29:24.636Z,31.62
2022-07-25T09:31:53.868Z,31.83
2022-07-25T09:34:35.585Z,31.51
2022-07-25T09:37:04.691Z,31.84
2022-07-25T09:39:46.067Z,31.88
2022-07-25T09:42:17.265Z,32.17
2022-07-25T09:44:45.415Z,32.07
2022-07-25T09:47:14.877Z,31.72
2022-07-25T09:49:43.812Z,32.20
2022-07-25T09:52:12.378Z,31.94
2022-07-25T09:54:41.056Z,31.96
2022-07-25T09:57:11.532Z,32.06
2022-07-25T09:59:41.141Z,31.90
2022-07-25T10:02:10.500Z,31.71
2022-07-25T10:04:44.655Z,32.06
2022-07-25T10:07:15.436Z,32.51
2022-07-25T10:09:44.988Z,32.36
2022-07-25T10:12:14.800Z,31.79
2022-07-25T10:14:44.291Z,32.43
2022-07-25T10:17:21.538Z,32.60
2022-07-25T10:19:53.169Z,32.13
2022-07-25T10:22:46.604Z,32.35
2022-07-25T10:25:13.329Z,32.61
2022-07-25T10:27:43.415Z,32.69
2022-07-25T10:30:23.141Z,33.34
2022-07-25T10:32:51.621Z,32.32
2022-07-25T10:35:22.004Z,32.38
2022-07-25T10:37:51.902Z,32.78
2022-07-25T10:40:30.076Z,32.58
2022-07-25T10:43:02.315Z,32.37
2022-07-25T10:45:42.089Z,32.88
2022-07-25T10:48:11.629Z,32.32
2022-07-25T10:50:57.389Z,33.18
2022-07-25T10:53:29.771Z,33.31
2022-07-25T10:56:05.610Z,32.94
2022-07-25T10:58:48.721Z,33.52
2022-07-25T11:01:22.431Z,33.30
2022-07-25T11:03:50.773Z,33.77
2022-07-25T11:06:31.336Z,34.19
2022-07-25T11:09:01.271Z,34.03
2022-07-25T11:11:40.389Z,34.47
2022-07-25T11:14:15.224Z,34.32
2022-07-25T11:16:44.948Z,34.49
2022-07-25T11:19:20.483Z,34.02
2022-07-25T11:21:49.369Z,34.80
2022-07-25T11:24:17.512Z,33.91
2022-07-25T11:26:46.431Z,34.22
2022-07-25T11:29:21.729Z,34.00
2022-07-25T11:31:54.538Z,34.46
2022-07-25T11:34:24.194Z,34.30
2022-07-25T11:36:55.156Z,33.87
2022-07-25T11:39:23.570Z,33.74
2022-07-25T11:41:59.480Z,34.32
2022-07-25T11:44:34.789Z,34.16
2022-07-25T11:47:05.184Z,33.93
2022-07-25T11:49:33.897Z,34.16
2022-07-25T11:52:02.073Z,33.49
2022-07-25T11:54:30.109Z,33.35
2022-07-25T11:56:58.162Z,33.91
2022-07-25T11:59:26.354Z,33.54
2022-07-25T12:01:54.478Z,33.46
2022-07-25T12:04:26.216Z,33.34
2022-07-25T12:07:04.436Z,33.73
2022-07-25T12:09:34.666Z,33.87
2022-07-25T12:12:04.291Z,33.39
2022-07-25T12:14:35.395Z,34.08
2022-07-25T12:17:03.717Z,34.12
2022-07-25T12:19:33.180Z,34.14
2022-07-25T12:22:01.242Z,33.61
2022-07-25T12:24:29.384Z,33.73
2022-07-25T12:26:57.488Z,33.10
2022-07-25T12:29:25.569Z,33.55
2022-07-25T12:31:53.731Z,33.66
2022-07-25T12:34:21.918Z,33.77
2022-07-25T12:36:52.955Z,34.10
2022-07-25T12:39:21.741Z,34.70
2022-07-25T12:41:49.809Z,34.42
2022-07-25T12:44:17.850Z,34.04
2022-07-25T12:46:49.436Z,34.23
2022-07-25T12:49:18.084Z,33.99
2022-07-25T12:51:48.574Z,33.52
2022-07-25T12:54:22.202Z,33.64
2022-07-25T12:56:53.049Z,34.17
2022-07-25T12:59:21.204Z,33.87
2022-07-25T13:01:49.567Z,33.96
2022-07-25T13:04:20.612Z,34.49
2022-07-25T13:06:48.698Z,33.97
2022-07-25T13:09:18.159Z,34.31
2022-07-25T13:11:46.199Z,34.61
2022-07-25T13:14:16.001Z,34.11
2022-07-25T13:16:44.214Z,33.74
2022-07-25T13:19:12.963Z,34.13
2022-07-25T13:21:41.185Z,33.73
2022-07-25T13:24:09.420Z,33.69
2022-07-25T13:26:39.335Z,33.64
2022-07-25T13:29:08.652Z,33.66
2022-07-25T13:31:38.153Z,33.86
2022-07-25T13:34:06.561Z,33.75
2022-07-25T13:36:34.960Z,33.78
2022-07-25T13:39:03.285Z,34.06
2022-07-25T13:41:34.499Z,33.80
2022-07-25T13:44:04.288Z,33.87
2022-07-25T13:46:32.360Z,33.38
2022-07-25T13:49:00.435Z,33.00
2022-07-25T13:51:28.516Z,32.97
2022-07-25T13:53:56.544Z,32.27
2022-07-25T13:56:24.760Z,31.77
2022-07-25T13:58:52.884Z,32.06
2022-07-25T14:01:26.622Z,32.26
2022-07-25T14:03:54.755Z,33.27
2022-07-25T14:06:25.188Z,34.10
2022-07-25T14:08:53.256Z,33.33
2022-07-25T14:11:21.339Z,33.22
2022-07-25T14:13:49.516Z,33.25
2022-07-25T14:16:20.183Z,33.45
2022-07-25T14:18:50.670Z,34.06
2022-07-25T14:21:18.765Z,34.46
2022-07-25T14:23:46.922Z,34.60
2022-07-25T14:26:15.055Z,34.41
2022-07-25T14:28:43.575Z,34.57
2022-07-25T14:31:14.021Z,34.86
2022-07-25T14:33:42.132Z,34.81
2022-07-25T14:36:13.803Z,34.24
2022-07-25T14:38:47.251Z,33.43
2022-07-25T14:41:17.543Z,33.31
2022-07-25T14:43:47.771Z,33.56
2022-07-25T14:46:16.256Z,33.33
2022-07-25T14:48:44.459Z,32.83
2022-07-25T14:51:13.913Z,32.54
2022-07-25T14:53:42.002Z,32.34
2022-07-25T14:56:10.325Z,32.13
2022-07-25T14:58:39.520Z,31.59
2022-07-25T15:01:11.109Z,30.96
2022-07-25T15:03:39.425Z,30.25
2022-07-25T15:06:09.829Z,29.47
2022-07-25T15:08:39.922Z,29.74
2022-07-25T15:11:09.526Z,29.93
2022-07-25T15:13:37.595Z,30.13
2022-07-25T15:16:06.052Z,30.83
2022-07-25T15:18:58.593Z,30.41
2022-07-25T15:21:25.079Z,30.59
2022-07-25T15:23:54.614Z,30.41
2022-07-25T15:26:23.803Z,30.37
2022-07-25T15:28:51.895Z,31.03
2022-07-25T15:31:21.333Z,31.68
2022-07-25T15:33:49.495Z,31.92
2022-07-25T15:36:21.255Z,32.03
2022-07-25T15:38:51.502Z,31.67
2022-07-25T15:41:20.939Z,32.21
2022-07-25T15:43:49.013Z,31.79
2022-07-25T15:46:17.399Z,31.99
2022-07-25T15:48:45.654Z,32.63
2022-07-25T15:51:16.474Z,32.42
2022-07-25T15:53:44.667Z,32.29
2022-07-25T15:56:14.808Z,32.35
2022-07-25T15:58:44.381Z,32.55
2022-07-25T16:01:12.476Z,32.56
2022-07-25T16:03:40.707Z,32.39
2022-07-25T16:06:09.275Z,32.75
2022-07-25T16:08:37.595Z,33.23
2022-07-25T16:11:05.959Z,33.18
2022-07-25T16:13:34.081Z,32.87
2022-07-25T16:16:03.703Z,32.95
2022-07-25T16:18:32.421Z,32.72
2022-07-25T16:21:00.527Z,32.32
2022-07-25T16:23:33.917Z,32.29
2022-07-25T16:26:04.434Z,32.48
2022-07-25T16:28:32.472Z,32.70
2022-07-25T16:31:00.597Z,32.33
2022-07-25T16:33:32.422Z,32.70
2022-07-25T16:36:00.469Z,32.47
2022-07-25T16:38:28.875Z,32.58
2022-07-25T16:40:56.941Z,32.42
2022-07-25T16:43:25.024Z,32.26
2022-07-25T16:45:53.087Z,32.24
2022-07-25T16:48:21.077Z,32.76
2022-07-25T16:50:50.483Z,33.23
2022-07-25T16:53:18.853Z,32.76
2022-07-25T16:55:47.008Z,32.49
2022-07-25T16:58:15.065Z,32.05
2022-07-25T17:00:43.740Z,32.15
2022-07-25T17:03:11.993Z,32.02
2022-07-25T17:05:40.961Z,31.97
2022-07-25T17:08:10.633Z,31.99
2022-07-25T17:10:38.693Z,32.59
2022-07-25T17:13:06.726Z,32.67
2022-07-25T17:15:34.863Z,33.06
2022-07-25T17:18:05.343Z,32.94
2022-07-25T17:20:33.369Z,32.59
2022-07-25T17:23:01.481Z,32.51
2022-07-25T17:25:30.905Z,32.45
2022-07-25T17:28:01.104Z,31.54
2022-07-25T17:30:29.248Z,31.45
2022-07-25T17:32:58.524Z,30.99
2022-07-25T17:35:26.734Z,30.78
2022-07-25T17:37:54.904Z,30.49
2022-07-25T17:40:23.020Z,30.70
2022-07-25T17:42:52.469Z,30.30
2022-07-25T17:45:20.591Z,30.26
2022-07-25T17:47:48.778Z,30.00
2022-07-25T17:50:17.497Z,29.82
2022-07-25T17:52:46.073Z,29.70
2022-07-25T17:55:14.134Z,29.59
2022-07-25T17:57:43.541Z,29.41
2022-07-25T18:00:14.110Z,29.28
2022-07-25T18:02:42.581Z,29.29
2022-07-25T18:05:10.799Z,29.09
2022-07-25T18:07:40.678Z,29.10
2022-07-25T18:10:11.024Z,28.85
2022-07-25T18:12:39.181Z,28.74
2022-07-25T18:15:08.186Z,28.60
2022-07-25T18:17:40.404Z,28.43
2022-07-25T18:20:09.188Z,28.37
2022-07-25T18:22:41.086Z,28.21
2022-07-25T18:25:10.937Z,27.98
2022-07-25T18:27:39.356Z,27.96
2022-07-25T18:30:08.093Z,27.74
2022-07-25T18:32:36.285Z,27.60
2022-07-25T18:35:06.741Z,27.59
2022-07-25T18:37:34.880Z,27.51
2022-07-25T18:40:02.920Z,27.40
2022-07-25T18:42:30.978Z,27.23
2022-07-25T18:44:59.111Z,27.17
2022-07-25T18:47:49.628Z,27.17
2022-07-25T18:50:20.435Z,26.94
2022-07-25T18:52:48.661Z,26.87
2022-07-25T18:55:18.749Z,26.91
2022-07-25T18:57:47.067Z,26.79
2022-07-25T19:00:15.451Z,26.72
2022-07-25T19:02:43.548Z,26.56
2022-07-25T19:05:14.479Z,26.64
2022-07-25T19:07:44.039Z,26.53
2022-07-25T19:10:12.237Z,26.56
2022-07-25T19:12:41.400Z,26.52
2022-07-25T19:15:11.886Z,26.44
2022-07-25T19:17:40.017Z,26.40
2022-07-25T19:20:11.182Z,26.20
2022-07-25T19:22:39.304Z,26.24
2022-07-25T19:25:10.878Z,26.25
2022-07-25T19:27:40.914Z,26.10
2022-07-25T19:30:13.924Z,26.06
2022-07-25T19:32:48.224Z,25.95
2022-07-25T19:35:24.104Z,25.97
2022-07-25T19:37:54.207Z,25.91
2022-07-25T19:40:23.974Z,25.95
2022-07-25T19:42:52.048Z,25.87
2022-07-25T19:45:20.146Z,25.80
2022-07-25T19:47:48.370Z,25.77
2022-07-25T19:50:16.632Z,25.67
2022-07-25T19:52:44.709Z,25.54
2022-07-25T19:55:12.870Z,25.51
2022-07-25T19:57:42.537Z,25.40
2022-07-25T20:00:11.235Z,25.37
2022-07-25T20:02:43.182Z,25.25
2022-07-25T20:05:11.724Z,25.20
2022-07-25T20:07:39.838Z,25.08
2022-07-25T20:10:08.559Z,25.08
2022-07-25T20:12:36.649Z,24.99
2022-07-25T20:15:06.931Z,25.03
2022-07-25T20:17:35.273Z,24.94
2022-07-25T20:20:03.419Z,24.94
2022-07-25T20:22:37.237Z,24.82
2022-07-25T20:25:08.647Z,24.82
2022-07-25T20:27:37.343Z,24.75
2022-07-25T20:30:08.124Z,24.76
2022-07-25T20:32:36.304Z,24.54
2022-07-25T20:35:05.859Z,24.42
2022-07-25T20:37:33.936Z,24.36
2022-07-25T20:40:07.016Z,24.40
2022-07-25T20:42:37.641Z,24.25
2022-07-25T20:45:07.804Z,24.15
2022-07-25T20:47:35.915Z,24.19
2022-07-25T20:50:03.971Z,23.97
2022-07-25T20:52:34.447Z,23.79
2022-07-25T20:55:06.969Z,23.86
2022-07-25T20:57:37.288Z,23.88
2022-07-25T21:00:07.445Z,23.95
2022-07-25T21:02:35.663Z,23.94
2022-07-25T21:05:04.992Z,23.80
2022-07-25T21:07:33.072Z,23.73
2022-07-25T21:10:01.213Z,23.58
2022-07-25T21:12:32.553Z,23.57
2022-07-25T21:15:01.585Z,23.57
2022-07-25T21:17:30.996Z,23.55
2022-07-25T21:19:59.172Z,23.48
2022-07-25T21:22:27.674Z,23.38
2022-07-25T21:24:55.740Z,23.30
2022-07-25T21:27:23.778Z,23.11
2022-07-25T21:29:54.188Z,23.01
2022-07-25T21:32:23.236Z,22.89
2022-07-25T21:34:52.835Z,22.98
2022-07-25T21:37:20.875Z,22.97
2022-07-25T21:39:48.939Z,22.97
2022-07-25T21:44:45.333Z,22.98
2022-07-25T21:47:16.089Z,22.89
2022-07-25T21:50:04.031Z,22.79
2022-07-25T21:52:35.024Z,22.89
2022-07-25T21:55:06.159Z,22.87
2022-07-25T21:57:34.230Z,22.86
2022-07-25T22:02:37.213Z,22.79
2022-07-25T22:05:05.780Z,22.70
2022-07-25T22:07:33.887Z,22.66
2022-07-25T22:10:04.338Z,22.67
2022-07-25T22:12:32.476Z,22.94
2022-07-25T22:15:00.532Z,23.04
2022-07-25T22:17:48.481Z,22.92
2022-07-25T22:20:19.517Z,22.84
2022-07-25T22:22:48.135Z,22.93
2022-07-25T22:25:16.614Z,22.94
2022-07-25T22:27:45.438Z,22.80
2022-07-25T22:30:18.796Z,22.68
2022-07-25T22:32:47.345Z,22.48
2022-07-25T22:35:15.453Z,22.52
2022-07-25T22:37:44.946Z,22.37
2022-07-25T22:40:13.644Z,22.34
2022-07-25T22:42:41.735Z,22.16
2022-07-25T22:45:10.228Z,22.10
2022-07-25T22:47:38.309Z,22.16
2022-07-25T22:50:07.194Z,22.12
2022-07-25T22:52:35.924Z,22.06
2022-07-25T22:55:08.300Z,22.02
2022-07-25T22:57:37.002Z,21.74
2022-07-25T23:00:07.382Z,21.94
2022-07-25T23:02:35.592Z,21.75
2022-07-25T23:05:03.890Z,21.54
2022-07-25T23:07:31.973Z,21.74
2022-07-25T23:10:00.363Z,21.69
2022-07-25T23:12:29.843Z,21.59
2022-07-25T23:14:57.891Z,21.84
2022-07-25T23:17:25.957Z,21.68
2022-07-25T23:19:55.731Z,21.49
2022-07-25T23:22:24.486Z,21.99
2022-07-25T23:24:52.538Z,22.08
2022-07-25T23:27:20.754Z,21.86
2022-07-25T23:29:50.168Z,21.68
2022-07-25T23:32:18.696Z,21.73
2022-07-25T23:34:46.796Z,21.82
2022-07-25T23:37:14.873Z,21.80
2022-07-25T23:39:42.956Z,21.68
2022-07-25T23:42:11.054Z,21.64
2022-07-25T23:44:39.531Z,21.76
2022-07-25T23:47:10.066Z,21.84
2022-07-25T23:49:39.245Z,21.81
2022-07-25T23:52:09.912Z,21.86
2022-07-25T23:54:40.443Z,21.80
2022-07-25T23:57:08.921Z,22.06
2022-07-25T23:59:37.134Z,21.93
